sensor_id;sensor_type;location;lat;lon;timestamp;P1;durP1;ratioP1;P2;durP2;ratioP2
45136;SDS011;30894;51.740;19.498;2023-06-14T00:01:30;1.80;;;0.95;;
45136;SDS011;30894;51.740;19.498;2023-06-14T00:04:00;1.33;;;1.13;;
45136;SDS011;30894;51.740;19.498;2023-06-14T00:06:28;2.38;;;1.25;;
45136;SDS011;30894;51.740;19.498;2023-06-14T00:09:24;1.52;;;0.93;;
45136;SDS011;30894;51.740;19.498;2023-06-14T00:12:19;1.40;;;1.30;;
45136;SDS011;30894;51.740;19.498;2023-06-14T00:14:52;1.83;;;1.20;;
45136;SDS011;30894;51.740;19.498;2023-06-14T00:17:20;1.50;;;1.27;;
45136;SDS011;30894;51.740;19.498;2023-06-14T00:19:46;4.50;;;1.33;;
45136;SDS011;30894;51.740;19.498;2023-06-14T00:22:12;5.28;;;1.48;;
45136;SDS011;30894;51.740;19.498;2023-06-14T00:24:38;2.30;;;1.42;;
45136;SDS011;30894;51.740;19.498;2023-06-14T00:38:47;1.83;;;1.30;;
45136;SDS011;30894;51.740;19.498;2023-06-14T00:56:37;1.85;;;1.20;;
45136;SDS011;30894;51.740;19.498;2023-06-14T00:59:08;5.78;;;1.33;;
45136;SDS011;30894;51.740;19.498;2023-06-14T01:01:36;1.77;;;1.30;;
45136;SDS011;30894;51.740;19.498;2023-06-14T01:04:04;2.17;;;1.30;;
45136;SDS011;30894;51.740;19.498;2023-06-14T01:06:35;3.10;;;1.27;;
45136;SDS011;30894;51.740;19.498;2023-06-14T01:12:04;1.05;;;0.90;;
45136;SDS011;30894;51.740;19.498;2023-06-14T01:14:39;1.63;;;1.30;;
45136;SDS011;30894;51.740;19.498;2023-06-14T01:17:07;2.47;;;1.55;;
45136;SDS011;30894;51.740;19.498;2023-06-14T01:19:43;1.77;;;1.05;;
45136;SDS011;30894;51.740;19.498;2023-06-14T01:22:11;1.52;;;1.30;;
45136;SDS011;30894;51.740;19.498;2023-06-14T01:24:38;2.92;;;1.25;;
45136;SDS011;30894;51.740;19.498;2023-06-14T01:27:04;1.83;;;1.60;;
45136;SDS011;30894;51.740;19.498;2023-06-14T01:29:32;3.17;;;1.25;;
45136;SDS011;30894;51.740;19.498;2023-06-14T01:32:01;4.20;;;1.70;;
45136;SDS011;30894;51.740;19.498;2023-06-14T01:34:28;1.50;;;1.25;;
45136;SDS011;30894;51.740;19.498;2023-06-14T01:36:54;1.75;;;1.52;;
45136;SDS011;30894;51.740;19.498;2023-06-14T01:39:21;3.50;;;1.50;;
45136;SDS011;30894;51.740;19.498;2023-06-14T01:41:48;5.38;;;1.73;;
45136;SDS011;30894;51.740;19.498;2023-06-14T01:44:16;1.98;;;1.35;;
45136;SDS011;30894;51.740;19.498;2023-06-14T01:46:45;2.30;;;1.60;;
45136;SDS011;30894;51.740;19.498;2023-06-14T01:49:14;3.78;;;1.90;;
45136;SDS011;30894;51.740;19.498;2023-06-14T01:51:40;3.90;;;2.00;;
45136;SDS011;30894;51.740;19.498;2023-06-14T01:54:07;3.67;;;2.15;;
45136;SDS011;30894;51.740;19.498;2023-06-14T01:56:33;2.60;;;1.60;;
45136;SDS011;30894;51.740;19.498;2023-06-14T01:58:59;4.47;;;1.50;;
45136;SDS011;30894;51.740;19.498;2023-06-14T02:01:25;3.40;;;1.40;;
45136;SDS011;30894;51.740;19.498;2023-06-14T02:03:52;7.13;;;1.67;;
45136;SDS011;30894;51.740;19.498;2023-06-14T02:06:18;2.15;;;1.35;;
45136;SDS011;30894;51.740;19.498;2023-06-14T02:08:45;2.85;;;1.50;;
45136;SDS011;30894;51.740;19.498;2023-06-14T02:11:11;4.75;;;1.80;;
45136;SDS011;30894;51.740;19.498;2023-06-14T02:13:37;3.95;;;1.80;;
45136;SDS011;30894;51.740;19.498;2023-06-14T02:16:03;6.80;;;1.90;;
45136;SDS011;30894;51.740;19.498;2023-06-14T02:18:29;2.17;;;1.40;;
45136;SDS011;30894;51.740;19.498;2023-06-14T02:23:29;2.67;;;1.60;;
45136;SDS011;30894;51.740;19.498;2023-06-14T02:25:59;2.08;;;1.33;;
45136;SDS011;30894;51.740;19.498;2023-06-14T03:03:18;6.70;;;2.78;;
45136;SDS011;30894;51.740;19.498;2023-06-14T03:09:03;3.00;;;1.90;;
45136;SDS011;30894;51.740;19.498;2023-06-14T03:15:04;4.03;;;2.00;;
45136;SDS011;30894;51.740;19.498;2023-06-14T03:20:52;4.45;;;2.20;;
45136;SDS011;30894;51.740;19.498;2023-06-14T03:23:59;7.40;;;2.90;;
45136;SDS011;30894;51.740;19.498;2023-06-14T03:32:50;8.95;;;2.90;;
45136;SDS011;30894;51.740;19.498;2023-06-14T03:35:49;6.55;;;2.40;;
45136;SDS011;30894;51.740;19.498;2023-06-14T03:41:38;4.50;;;2.67;;
45136;SDS011;30894;51.740;19.498;2023-06-14T03:47:22;6.18;;;2.90;;
45136;SDS011;30894;51.740;19.498;2023-06-14T03:53:10;6.30;;;2.70;;
45136;SDS011;30894;51.740;19.498;2023-06-14T03:55:37;4.95;;;3.35;;
45136;SDS011;30894;51.740;19.498;2023-06-14T03:58:03;4.25;;;2.58;;
45136;SDS011;30894;51.740;19.498;2023-06-14T04:00:30;4.25;;;2.70;;
45136;SDS011;30894;51.740;19.498;2023-06-14T04:02:57;5.55;;;2.97;;
45136;SDS011;30894;51.740;19.498;2023-06-14T04:05:24;8.20;;;2.88;;
45136;SDS011;30894;51.740;19.498;2023-06-14T04:07:51;6.15;;;3.10;;
45136;SDS011;30894;51.740;19.498;2023-06-14T04:10:21;4.22;;;2.50;;
45136;SDS011;30894;51.740;19.498;2023-06-14T04:12:48;6.68;;;3.15;;
45136;SDS011;30894;51.740;19.498;2023-06-14T04:15:14;8.82;;;3.40;;
45136;SDS011;30894;51.740;19.498;2023-06-14T04:17:40;8.73;;;3.00;;
45136;SDS011;30894;51.740;19.498;2023-06-14T04:20:07;5.70;;;2.85;;
45136;SDS011;30894;51.740;19.498;2023-06-14T04:25:20;4.82;;;3.10;;
45136;SDS011;30894;51.740;19.498;2023-06-14T04:31:01;6.35;;;3.42;;
45136;SDS011;30894;51.740;19.498;2023-06-14T04:36:50;5.97;;;3.28;;
45136;SDS011;30894;51.740;19.498;2023-06-14T04:45:29;4.90;;;2.30;;
45136;SDS011;30894;51.740;19.498;2023-06-14T04:51:08;5.00;;;2.85;;
45136;SDS011;30894;51.740;19.498;2023-06-14T04:54:04;7.90;;;2.67;;
45136;SDS011;30894;51.740;19.498;2023-06-14T04:57:21;6.13;;;3.40;;
45136;SDS011;30894;51.740;19.498;2023-06-14T05:10:18;4.95;;;2.90;;
45136;SDS011;30894;51.740;19.498;2023-06-14T05:13:00;6.85;;;3.00;;
45136;SDS011;30894;51.740;19.498;2023-06-14T05:21:30;7.82;;;3.03;;
45136;SDS011;30894;51.740;19.498;2023-06-14T05:39:05;4.00;;;2.45;;
45136;SDS011;30894;51.740;19.498;2023-06-14T05:42:03;3.47;;;2.60;;
45136;SDS011;30894;51.740;19.498;2023-06-14T05:47:18;6.32;;;3.03;;
45136;SDS011;30894;51.740;19.498;2023-06-14T05:59:50;7.30;;;2.97;;
45136;SDS011;30894;51.740;19.498;2023-06-14T06:02:44;5.90;;;3.00;;
45136;SDS011;30894;51.740;19.498;2023-06-14T06:05:18;4.80;;;2.35;;
45136;SDS011;30894;51.740;19.498;2023-06-14T06:07:44;4.28;;;2.70;;
45136;SDS011;30894;51.740;19.498;2023-06-14T06:10:12;11.70;;;2.65;;
45136;SDS011;30894;51.740;19.498;2023-06-14T06:12:38;4.60;;;3.15;;
45136;SDS011;30894;51.740;19.498;2023-06-14T06:18:08;5.00;;;2.92;;
45136;SDS011;30894;51.740;19.498;2023-06-14T06:21:06;3.38;;;2.60;;
45136;SDS011;30894;51.740;19.498;2023-06-14T06:23:42;7.65;;;2.53;;
45136;SDS011;30894;51.740;19.498;2023-06-14T06:26:24;4.70;;;2.70;;
45136;SDS011;30894;51.740;19.498;2023-06-14T06:29:14;6.25;;;2.88;;
45136;SDS011;30894;51.740;19.498;2023-06-14T06:31:59;7.97;;;2.60;;
45136;SDS011;30894;51.740;19.498;2023-06-14T06:34:53;6.75;;;3.40;;
45136;SDS011;30894;51.740;19.498;2023-06-14T06:37:25;12.02;;;3.30;;
45136;SDS011;30894;51.740;19.498;2023-06-14T06:39:51;6.20;;;2.38;;
45136;SDS011;30894;51.740;19.498;2023-06-14T06:42:17;6.45;;;2.58;;
45136;SDS011;30894;51.740;19.498;2023-06-14T06:44:44;4.75;;;2.85;;
45136;SDS011;30894;51.740;19.498;2023-06-14T06:47:10;4.13;;;2.75;;
45136;SDS011;30894;51.740;19.498;2023-06-14T06:49:36;4.90;;;2.63;;
45136;SDS011;30894;51.740;19.498;2023-06-14T06:52:04;4.28;;;2.53;;
45136;SDS011;30894;51.740;19.498;2023-06-14T06:54:32;3.30;;;2.13;;
45136;SDS011;30894;51.740;19.498;2023-06-14T06:57:00;4.63;;;2.42;;
45136;SDS011;30894;51.740;19.498;2023-06-14T06:59:29;5.60;;;2.53;;
45136;SDS011;30894;51.740;19.498;2023-06-14T07:01:56;5.60;;;2.28;;
45136;SDS011;30894;51.740;19.498;2023-06-14T07:04:41;4.30;;;2.22;;
45136;SDS011;30894;51.740;19.498;2023-06-14T07:07:17;3.60;;;2.30;;
45136;SDS011;30894;51.740;19.498;2023-06-14T07:09:57;6.63;;;2.67;;
45136;SDS011;30894;51.740;19.498;2023-06-14T07:12:36;3.42;;;2.30;;
45136;SDS011;30894;51.740;19.498;2023-06-14T07:15:06;3.13;;;2.05;;
45136;SDS011;30894;51.740;19.498;2023-06-14T07:17:37;5.75;;;2.60;;
45136;SDS011;30894;51.740;19.498;2023-06-14T07:20:09;3.95;;;2.55;;
45136;SDS011;30894;51.740;19.498;2023-06-14T07:22:49;3.33;;;2.30;;
45136;SDS011;30894;51.740;19.498;2023-06-14T07:25:31;5.55;;;2.65;;
45136;SDS011;30894;51.740;19.498;2023-06-14T07:28:01;3.30;;;2.08;;
45136;SDS011;30894;51.740;19.498;2023-06-14T07:30:30;3.65;;;2.03;;
45136;SDS011;30894;51.740;19.498;2023-06-14T07:32:57;3.28;;;2.13;;
45136;SDS011;30894;51.740;19.498;2023-06-14T07:35:25;4.45;;;2.55;;
45136;SDS011;30894;51.740;19.498;2023-06-14T07:37:58;6.78;;;2.40;;
45136;SDS011;30894;51.740;19.498;2023-06-14T07:40:25;4.65;;;2.38;;
45136;SDS011;30894;51.740;19.498;2023-06-14T07:42:53;5.55;;;2.33;;
45136;SDS011;30894;51.740;19.498;2023-06-14T07:45:20;3.45;;;1.83;;
45136;SDS011;30894;51.740;19.498;2023-06-14T07:47:46;4.72;;;2.03;;
45136;SDS011;30894;51.740;19.498;2023-06-14T07:50:12;3.17;;;2.10;;
45136;SDS011;30894;51.740;19.498;2023-06-14T07:52:39;4.30;;;2.10;;
45136;SDS011;30894;51.740;19.498;2023-06-14T07:55:05;7.22;;;2.50;;
45136;SDS011;30894;51.740;19.498;2023-06-14T07:57:32;5.10;;;2.10;;
45136;SDS011;30894;51.740;19.498;2023-06-14T07:59:59;3.58;;;2.15;;
45136;SDS011;30894;51.740;19.498;2023-06-14T08:02:25;4.53;;;2.13;;
45136;SDS011;30894;51.740;19.498;2023-06-14T08:04:54;5.60;;;2.13;;
45136;SDS011;30894;51.740;19.498;2023-06-14T08:07:22;5.63;;;1.95;;
45136;SDS011;30894;51.740;19.498;2023-06-14T08:09:52;3.05;;;1.92;;
45136;SDS011;30894;51.740;19.498;2023-06-14T08:12:21;6.30;;;2.38;;
45136;SDS011;30894;51.740;19.498;2023-06-14T08:14:48;3.95;;;1.98;;
45136;SDS011;30894;51.740;19.498;2023-06-14T08:17:14;3.65;;;2.38;;
45136;SDS011;30894;51.740;19.498;2023-06-14T08:19:41;3.35;;;2.13;;
45136;SDS011;30894;51.740;19.498;2023-06-14T08:22:08;3.72;;;2.33;;
45136;SDS011;30894;51.740;19.498;2023-06-14T08:24:39;3.08;;;2.03;;
45136;SDS011;30894;51.740;19.498;2023-06-14T08:27:06;4.65;;;2.70;;
45136;SDS011;30894;51.740;19.498;2023-06-14T08:29:41;4.05;;;2.08;;
45136;SDS011;30894;51.740;19.498;2023-06-14T08:32:07;7.13;;;2.50;;
45136;SDS011;30894;51.740;19.498;2023-06-14T08:34:40;5.05;;;2.10;;
45136;SDS011;30894;51.740;19.498;2023-06-14T08:37:10;2.97;;;2.28;;
45136;SDS011;30894;51.740;19.498;2023-06-14T08:39:36;4.45;;;2.35;;
45136;SDS011;30894;51.740;19.498;2023-06-14T08:42:04;8.70;;;2.80;;
45136;SDS011;30894;51.740;19.498;2023-06-14T08:44:42;4.82;;;2.78;;
45136;SDS011;30894;51.740;19.498;2023-06-14T08:47:22;5.53;;;2.72;;
45136;SDS011;30894;51.740;19.498;2023-06-14T08:49:55;5.47;;;2.55;;
45136;SDS011;30894;51.740;19.498;2023-06-14T08:52:23;7.32;;;2.70;;
45136;SDS011;30894;51.740;19.498;2023-06-14T08:55:05;3.58;;;2.28;;
45136;SDS011;30894;51.740;19.498;2023-06-14T08:57:42;4.60;;;2.20;;
45136;SDS011;30894;51.740;19.498;2023-06-14T09:00:30;5.68;;;2.53;;
45136;SDS011;30894;51.740;19.498;2023-06-14T09:03:05;3.65;;;2.35;;
45136;SDS011;30894;51.740;19.498;2023-06-14T09:05:40;4.53;;;2.72;;
45136;SDS011;30894;51.740;19.498;2023-06-14T09:08:13;6.70;;;3.42;;
45136;SDS011;30894;51.740;19.498;2023-06-14T09:10:42;3.50;;;2.25;;
45136;SDS011;30894;51.740;19.498;2023-06-14T09:13:11;8.43;;;2.47;;
45136;SDS011;30894;51.740;19.498;2023-06-14T09:15:38;5.57;;;2.30;;
45136;SDS011;30894;51.740;19.498;2023-06-14T09:18:22;3.50;;;2.38;;
45136;SDS011;30894;51.740;19.498;2023-06-14T09:21:11;3.03;;;2.40;;
45136;SDS011;30894;51.740;19.498;2023-06-14T09:23:38;7.45;;;2.83;;
45136;SDS011;30894;51.740;19.498;2023-06-14T09:26:17;4.60;;;2.17;;
45136;SDS011;30894;51.740;19.498;2023-06-14T09:28:49;4.40;;;2.70;;
45136;SDS011;30894;51.740;19.498;2023-06-14T09:31:24;5.78;;;2.50;;
45136;SDS011;30894;51.740;19.498;2023-06-14T09:34:01;2.97;;;2.35;;
45136;SDS011;30894;51.740;19.498;2023-06-14T09:36:31;3.40;;;2.28;;
45136;SDS011;30894;51.740;19.498;2023-06-14T09:39:02;4.68;;;2.35;;
45136;SDS011;30894;51.740;19.498;2023-06-14T09:41:34;2.15;;;1.70;;
45136;SDS011;30894;51.740;19.498;2023-06-14T09:44:04;6.13;;;2.40;;
45136;SDS011;30894;51.740;19.498;2023-06-14T09:46:34;7.05;;;2.35;;
45136;SDS011;30894;51.740;19.498;2023-06-14T09:49:06;4.40;;;2.33;;
45136;SDS011;30894;51.740;19.498;2023-06-14T09:51:34;5.90;;;2.38;;
45136;SDS011;30894;51.740;19.498;2023-06-14T09:54:11;23.75;;;4.32;;
45136;SDS011;30894;51.740;19.498;2023-06-14T09:56:44;5.88;;;2.58;;
45136;SDS011;30894;51.740;19.498;2023-06-14T09:59:13;9.15;;;3.08;;
45136;SDS011;30894;51.740;19.498;2023-06-14T10:01:47;9.90;;;2.83;;
45136;SDS011;30894;51.740;19.498;2023-06-14T10:04:18;2.88;;;2.30;;
45136;SDS011;30894;51.740;19.498;2023-06-14T10:06:53;6.38;;;2.60;;
45136;SDS011;30894;51.740;19.498;2023-06-14T10:09:20;3.80;;;2.05;;
45136;SDS011;30894;51.740;19.498;2023-06-14T10:11:47;5.05;;;2.38;;
45136;SDS011;30894;51.740;19.498;2023-06-14T10:14:17;4.05;;;2.15;;
45136;SDS011;30894;51.740;19.498;2023-06-14T10:22:40;6.40;;;2.50;;
45136;SDS011;30894;51.740;19.498;2023-06-14T10:25:13;6.28;;;2.40;;
45136;SDS011;30894;51.740;19.498;2023-06-14T10:33:29;5.55;;;2.28;;
45136;SDS011;30894;51.740;19.498;2023-06-14T10:36:07;8.73;;;2.50;;
45136;SDS011;30894;51.740;19.498;2023-06-14T10:38:57;12.05;;;3.30;;
45136;SDS011;30894;51.740;19.498;2023-06-14T10:41:28;6.80;;;2.50;;
45136;SDS011;30894;51.740;19.498;2023-06-14T10:46:40;7.85;;;2.55;;
45136;SDS011;30894;51.740;19.498;2023-06-14T10:49:11;5.05;;;2.70;;
45136;SDS011;30894;51.740;19.498;2023-06-14T10:51:38;9.10;;;3.03;;
45136;SDS011;30894;51.740;19.498;2023-06-14T10:54:14;5.13;;;2.90;;
45136;SDS011;30894;51.740;19.498;2023-06-14T10:56:51;5.97;;;2.95;;
45136;SDS011;30894;51.740;19.498;2023-06-14T10:59:19;5.30;;;2.65;;
45136;SDS011;30894;51.740;19.498;2023-06-14T11:01:52;6.03;;;2.58;;
45136;SDS011;30894;51.740;19.498;2023-06-14T11:13:20;5.60;;;3.00;;
45136;SDS011;30894;51.740;19.498;2023-06-14T11:15:54;5.80;;;2.90;;
45136;SDS011;30894;51.740;19.498;2023-06-14T11:18:24;5.57;;;2.60;;
45136;SDS011;30894;51.740;19.498;2023-06-14T11:20:54;7.45;;;3.20;;
45136;SDS011;30894;51.740;19.498;2023-06-14T11:23:21;7.90;;;3.03;;
45136;SDS011;30894;51.740;19.498;2023-06-14T11:25:52;4.85;;;3.00;;
45136;SDS011;30894;51.740;19.498;2023-06-14T11:28:20;5.47;;;3.15;;
45136;SDS011;30894;51.740;19.498;2023-06-14T11:30:48;5.72;;;3.20;;
45136;SDS011;30894;51.740;19.498;2023-06-14T11:33:25;5.78;;;3.00;;
45136;SDS011;30894;51.740;19.498;2023-06-14T11:35:51;4.65;;;2.70;;
45136;SDS011;30894;51.740;19.498;2023-06-14T11:38:18;4.88;;;2.95;;
45136;SDS011;30894;51.740;19.498;2023-06-14T11:40:44;10.02;;;2.33;;
45136;SDS011;30894;51.740;19.498;2023-06-14T11:43:11;2.22;;;1.77;;
45136;SDS011;30894;51.740;19.498;2023-06-14T11:45:47;1.25;;;1.10;;
45136;SDS011;30894;51.740;19.498;2023-06-14T11:48:15;2.60;;;0.68;;
45136;SDS011;30894;51.740;19.498;2023-06-14T11:50:41;1.60;;;1.33;;
45136;SDS011;30894;51.740;19.498;2023-06-14T11:53:07;1.33;;;0.90;;
45136;SDS011;30894;51.740;19.498;2023-06-14T11:55:41;2.40;;;0.68;;
45136;SDS011;30894;51.740;19.498;2023-06-14T11:58:13;1.58;;;0.82;;
45136;SDS011;30894;51.740;19.498;2023-06-14T12:00:40;1.13;;;0.80;;
45136;SDS011;30894;51.740;19.498;2023-06-14T12:03:07;0.65;;;0.50;;
45136;SDS011;30894;51.740;19.498;2023-06-14T12:05:33;1.80;;;1.23;;
45136;SDS011;30894;51.740;19.498;2023-06-14T12:08:01;1.45;;;1.08;;
45136;SDS011;30894;51.740;19.498;2023-06-14T12:10:31;1.95;;;1.27;;
45136;SDS011;30894;51.740;19.498;2023-06-14T12:13:09;2.08;;;1.50;;
45136;SDS011;30894;51.740;19.498;2023-06-14T12:15:37;2.67;;;1.70;;
45136;SDS011;30894;51.740;19.498;2023-06-14T12:18:07;2.53;;;1.92;;
45136;SDS011;30894;51.740;19.498;2023-06-14T12:20:33;2.70;;;1.85;;
45136;SDS011;30894;51.740;19.498;2023-06-14T12:23:03;1.17;;;1.08;;
45136;SDS011;30894;51.740;19.498;2023-06-14T12:25:34;3.03;;;1.55;;
45136;SDS011;30894;51.740;19.498;2023-06-14T12:28:30;4.55;;;1.83;;
45136;SDS011;30894;51.740;19.498;2023-06-14T12:30:57;1.98;;;1.58;;
45136;SDS011;30894;51.740;19.498;2023-06-14T12:33:24;2.63;;;1.45;;
45136;SDS011;30894;51.740;19.498;2023-06-14T12:35:51;3.13;;;1.90;;
45136;SDS011;30894;51.740;19.498;2023-06-14T12:38:21;3.30;;;1.95;;
45136;SDS011;30894;51.740;19.498;2023-06-14T12:40:47;2.78;;;2.00;;
45136;SDS011;30894;51.740;19.498;2023-06-14T12:43:17;2.72;;;2.03;;
45136;SDS011;30894;51.740;19.498;2023-06-14T12:45:43;2.35;;;1.55;;
45136;SDS011;30894;51.740;19.498;2023-06-14T12:48:10;1.80;;;1.42;;
45136;SDS011;30894;51.740;19.498;2023-06-14T12:50:35;3.05;;;1.63;;
45136;SDS011;30894;51.740;19.498;2023-06-14T12:53:02;2.67;;;1.52;;
45136;SDS011;30894;51.740;19.498;2023-06-14T12:55:28;3.05;;;1.67;;
45136;SDS011;30894;51.740;19.498;2023-06-14T12:57:54;1.90;;;1.58;;
45136;SDS011;30894;51.740;19.498;2023-06-14T13:00:20;2.63;;;1.63;;
45136;SDS011;30894;51.740;19.498;2023-06-14T13:02:51;2.65;;;1.55;;
45136;SDS011;30894;51.740;19.498;2023-06-14T13:05:18;2.38;;;1.35;;
45136;SDS011;30894;51.740;19.498;2023-06-14T13:07:47;2.25;;;1.60;;
45136;SDS011;30894;51.740;19.498;2023-06-14T13:10:13;3.03;;;1.60;;
45136;SDS011;30894;51.740;19.498;2023-06-14T13:12:43;1.92;;;1.30;;
45136;SDS011;30894;51.740;19.498;2023-06-14T13:15:09;3.90;;;2.10;;
45136;SDS011;30894;51.740;19.498;2023-06-14T13:17:36;2.38;;;1.40;;
45136;SDS011;30894;51.740;19.498;2023-06-14T13:20:08;1.85;;;1.42;;
45136;SDS011;30894;51.740;19.498;2023-06-14T13:22:35;2.70;;;1.48;;
45136;SDS011;30894;51.740;19.498;2023-06-14T13:25:02;3.38;;;2.08;;
45136;SDS011;30894;51.740;19.498;2023-06-14T13:27:29;1.40;;;1.30;;
45136;SDS011;30894;51.740;19.498;2023-06-14T13:29:55;3.75;;;1.50;;
45136;SDS011;30894;51.740;19.498;2023-06-14T13:32:24;2.00;;;1.45;;
45136;SDS011;30894;51.740;19.498;2023-06-14T13:34:50;3.63;;;1.80;;
45136;SDS011;30894;51.740;19.498;2023-06-14T13:43:54;3.75;;;1.13;;
45136;SDS011;30894;51.740;19.498;2023-06-14T13:46:33;2.15;;;1.23;;
45136;SDS011;30894;51.740;19.498;2023-06-14T13:49:09;1.60;;;0.90;;
45136;SDS011;30894;51.740;19.498;2023-06-14T13:52:08;0.95;;;0.73;;
45136;SDS011;30894;51.740;19.498;2023-06-14T13:54:34;0.73;;;0.73;;
45136;SDS011;30894;51.740;19.498;2023-06-14T13:57:02;1.52;;;1.13;;
45136;SDS011;30894;51.740;19.498;2023-06-14T13:59:29;0.90;;;0.90;;
45136;SDS011;30894;51.740;19.498;2023-06-14T14:01:55;1.67;;;1.00;;
45136;SDS011;30894;51.740;19.498;2023-06-14T14:04:22;1.92;;;0.90;;
45136;SDS011;30894;51.740;19.498;2023-06-14T14:06:51;1.08;;;0.90;;
45136;SDS011;30894;51.740;19.498;2023-06-14T14:09:17;0.82;;;0.82;;
45136;SDS011;30894;51.740;19.498;2023-06-14T14:11:44;2.70;;;1.25;;
45136;SDS011;30894;51.740;19.498;2023-06-14T14:14:10;4.35;;;1.40;;
45136;SDS011;30894;51.740;19.498;2023-06-14T14:16:41;4.20;;;1.10;;
45136;SDS011;30894;51.740;19.498;2023-06-14T14:19:07;6.47;;;1.58;;
45136;SDS011;30894;51.740;19.498;2023-06-14T14:21:33;2.78;;;1.20;;
45136;SDS011;30894;51.740;19.498;2023-06-14T14:24:00;1.30;;;1.20;;
45136;SDS011;30894;51.740;19.498;2023-06-14T14:26:27;2.50;;;1.33;;
45136;SDS011;30894;51.740;19.498;2023-06-14T14:28:53;3.47;;;1.45;;
45136;SDS011;30894;51.740;19.498;2023-06-14T14:31:19;4.75;;;1.30;;
45136;SDS011;30894;51.740;19.498;2023-06-14T14:33:46;2.25;;;1.33;;
45136;SDS011;30894;51.740;19.498;2023-06-14T14:36:13;2.65;;;1.02;;
45136;SDS011;30894;51.740;19.498;2023-06-14T14:38:39;4.82;;;1.10;;
45136;SDS011;30894;51.740;19.498;2023-06-14T14:41:05;4.68;;;1.33;;
45136;SDS011;30894;51.740;19.498;2023-06-14T14:43:31;1.33;;;1.20;;
45136;SDS011;30894;51.740;19.498;2023-06-14T14:45:57;4.10;;;1.50;;
45136;SDS011;30894;51.740;19.498;2023-06-14T14:48:24;2.80;;;1.30;;
45136;SDS011;30894;51.740;19.498;2023-06-14T14:50:50;3.05;;;1.85;;
45136;SDS011;30894;51.740;19.498;2023-06-14T14:53:16;5.22;;;1.88;;
45136;SDS011;30894;51.740;19.498;2023-06-14T14:55:48;4.88;;;1.80;;
45136;SDS011;30894;51.740;19.498;2023-06-14T14:58:18;3.75;;;1.40;;
45136;SDS011;30894;51.740;19.498;2023-06-14T15:00:45;3.25;;;1.67;;
45136;SDS011;30894;51.740;19.498;2023-06-14T15:03:14;2.30;;;1.50;;
45136;SDS011;30894;51.740;19.498;2023-06-14T15:05:41;3.22;;;1.80;;
45136;SDS011;30894;51.740;19.498;2023-06-14T15:08:09;2.58;;;1.70;;
45136;SDS011;30894;51.740;19.498;2023-06-14T15:10:38;6.35;;;2.10;;
45136;SDS011;30894;51.740;19.498;2023-06-14T15:13:07;3.13;;;1.50;;
45136;SDS011;30894;51.740;19.498;2023-06-14T15:15:34;3.22;;;2.00;;
45136;SDS011;30894;51.740;19.498;2023-06-14T15:18:01;4.32;;;2.33;;
45136;SDS011;30894;51.740;19.498;2023-06-14T15:20:28;2.47;;;1.42;;
45136;SDS011;30894;51.740;19.498;2023-06-14T15:22:54;3.28;;;1.75;;
45136;SDS011;30894;51.740;19.498;2023-06-14T15:25:28;1.65;;;1.45;;
45136;SDS011;30894;51.740;19.498;2023-06-14T15:27:55;3.63;;;1.95;;
45136;SDS011;30894;51.740;19.498;2023-06-14T15:30:21;4.75;;;2.30;;
45136;SDS011;30894;51.740;19.498;2023-06-14T15:32:48;6.97;;;1.50;;
45136;SDS011;30894;51.740;19.498;2023-06-14T15:35:16;5.13;;;1.95;;
45136;SDS011;30894;51.740;19.498;2023-06-14T15:37:47;1.58;;;1.48;;
45136;SDS011;30894;51.740;19.498;2023-06-14T15:40:13;3.75;;;2.20;;
45136;SDS011;30894;51.740;19.498;2023-06-14T15:42:41;1.77;;;1.50;;
45136;SDS011;30894;51.740;19.498;2023-06-14T15:45:07;2.20;;;1.50;;
45136;SDS011;30894;51.740;19.498;2023-06-14T15:47:36;2.25;;;1.52;;
45136;SDS011;30894;51.740;19.498;2023-06-14T15:50:06;8.70;;;2.28;;
45136;SDS011;30894;51.740;19.498;2023-06-14T15:52:34;2.53;;;1.70;;
45136;SDS011;30894;51.740;19.498;2023-06-14T15:55:01;2.72;;;1.67;;
45136;SDS011;30894;51.740;19.498;2023-06-14T15:57:29;2.55;;;1.77;;
45136;SDS011;30894;51.740;19.498;2023-06-14T15:59:55;4.95;;;2.13;;
45136;SDS011;30894;51.740;19.498;2023-06-14T16:02:21;3.67;;;2.03;;
45136;SDS011;30894;51.740;19.498;2023-06-14T16:04:48;8.27;;;1.95;;
45136;SDS011;30894;51.740;19.498;2023-06-14T16:07:14;3.78;;;2.13;;
45136;SDS011;30894;51.740;19.498;2023-06-14T16:12:20;5.82;;;2.22;;
45136;SDS011;30894;51.740;19.498;2023-06-14T16:14:47;5.85;;;3.13;;
45136;SDS011;30894;51.740;19.498;2023-06-14T16:17:13;8.40;;;2.40;;
45136;SDS011;30894;51.740;19.498;2023-06-14T16:19:40;3.35;;;2.22;;
45136;SDS011;30894;51.740;19.498;2023-06-14T16:22:06;3.25;;;2.05;;
45136;SDS011;30894;51.740;19.498;2023-06-14T16:24:33;7.18;;;2.03;;
45136;SDS011;30894;51.740;19.498;2023-06-14T16:26:59;4.70;;;2.35;;
45136;SDS011;30894;51.740;19.498;2023-06-14T16:29:25;2.50;;;1.65;;
45136;SDS011;30894;51.740;19.498;2023-06-14T16:31:53;2.85;;;2.22;;
45136;SDS011;30894;51.740;19.498;2023-06-14T16:34:23;3.40;;;2.08;;
45136;SDS011;30894;51.740;19.498;2023-06-14T16:36:48;3.22;;;2.03;;
45136;SDS011;30894;51.740;19.498;2023-06-14T16:39:15;5.35;;;2.15;;
45136;SDS011;30894;51.740;19.498;2023-06-14T16:41:42;5.47;;;2.00;;
45136;SDS011;30894;51.740;19.498;2023-06-14T16:44:21;4.78;;;2.63;;
45136;SDS011;30894;51.740;19.498;2023-06-14T16:46:49;4.32;;;2.42;;
45136;SDS011;30894;51.740;19.498;2023-06-14T16:49:17;9.13;;;2.13;;
45136;SDS011;30894;51.740;19.498;2023-06-14T16:51:46;5.32;;;2.38;;
45136;SDS011;30894;51.740;19.498;2023-06-14T16:54:13;5.35;;;2.15;;
45136;SDS011;30894;51.740;19.498;2023-06-14T16:56:40;7.10;;;2.83;;
45136;SDS011;30894;51.740;19.498;2023-06-14T16:59:06;3.40;;;1.80;;
45136;SDS011;30894;51.740;19.498;2023-06-14T17:01:33;5.75;;;2.30;;
45136;SDS011;30894;51.740;19.498;2023-06-14T17:04:03;5.35;;;2.10;;
45136;SDS011;30894;51.740;19.498;2023-06-14T17:06:29;3.70;;;2.20;;
45136;SDS011;30894;51.740;19.498;2023-06-14T17:08:56;3.50;;;2.05;;
45136;SDS011;30894;51.740;19.498;2023-06-14T17:11:31;2.95;;;1.83;;
45136;SDS011;30894;51.740;19.498;2023-06-14T17:13:58;4.07;;;2.45;;
45136;SDS011;30894;51.740;19.498;2023-06-14T17:16:25;5.15;;;2.33;;
45136;SDS011;30894;51.740;19.498;2023-06-14T17:18:52;2.15;;;1.42;;
45136;SDS011;30894;51.740;19.498;2023-06-14T17:21:18;2.53;;;1.45;;
45136;SDS011;30894;51.740;19.498;2023-06-14T17:23:45;5.25;;;2.35;;
45136;SDS011;30894;51.740;19.498;2023-06-14T17:26:11;6.10;;;2.63;;
45136;SDS011;30894;51.740;19.498;2023-06-14T17:28:37;3.60;;;2.00;;
45136;SDS011;30894;51.740;19.498;2023-06-14T17:31:04;4.05;;;2.28;;
45136;SDS011;30894;51.740;19.498;2023-06-14T17:33:30;5.90;;;2.47;;
45136;SDS011;30894;51.740;19.498;2023-06-14T17:35:57;5.25;;;2.95;;
45136;SDS011;30894;51.740;19.498;2023-06-14T17:38:24;5.43;;;2.90;;
45136;SDS011;30894;51.740;19.498;2023-06-14T17:40:52;5.90;;;2.85;;
45136;SDS011;30894;51.740;19.498;2023-06-14T17:43:19;3.55;;;2.50;;
45136;SDS011;30894;51.740;19.498;2023-06-14T17:45:46;3.35;;;2.28;;
45136;SDS011;30894;51.740;19.498;2023-06-14T17:48:13;3.17;;;2.40;;
45136;SDS011;30894;51.740;19.498;2023-06-14T17:50:39;5.47;;;2.92;;
45136;SDS011;30894;51.740;19.498;2023-06-14T17:53:06;7.38;;;2.42;;
45136;SDS011;30894;51.740;19.498;2023-06-14T17:55:32;5.82;;;3.38;;
45136;SDS011;30894;51.740;19.498;2023-06-14T17:58:01;4.10;;;2.35;;
45136;SDS011;30894;51.740;19.498;2023-06-14T18:00:30;4.20;;;2.33;;
45136;SDS011;30894;51.740;19.498;2023-06-14T18:02:57;6.70;;;2.80;;